AirNav   Bose ProFlight Series 2 Headset
 
 562 users online  

WS15 Mill House Field Airport
Wyocena, Wisconsin, USA

GOING TO WYOCENA?


FAA INFORMATION EFFECTIVE 30 JANUARY 2020

Location

FAA Identifier: WS15
Lat/Long: 43-29-42.6930N 089-15-55.4200W
43-29.711550N 089-15.923667W
43.4951925,-89.2653944
(estimated)
Elevation: 820 ft. / 250 m (estimated)
Variation: 01W (1995)
From city: 2 miles E of WYOCENA, WI
Time zone: UTC -6 (UTC -5 during Daylight Saving Time)
Zip code: 53960

Airport Operations

Airport use: Private use. Permission required prior to landing
Activation date: 03/1998
Control tower: no
ARTCC: CHICAGO CENTER
FSS: GREEN BAY FLIGHT SERVICE STATION
Attendance: UNATNDD
Wind indicator: yes
Segmented circle: no

Nearby radio navigation aids

VOR radial/distance  VOR name  Freq  Var
MSNr006/21.3MADISON VORTAC108.6003E
DLLr096/21.9DELLS VORTAC117.0003E
LNRr072/39.7LONE ROCK VOR/DME112.8000E

 
NDB name  Hdg/Dist  Freq  Var  ID
JUNEAU280/24.834401WUNU ..- -. ..-
ROCK RIVER310/30.537101WRYV .-. -.-- ...-

Airport Services

Runway Information

Runway 8/26

Dimensions: 2000 x 150 ft. / 610 x 46 m
Surface: turf, in good condition
RUNWAY 8  RUNWAY 26
Traffic pattern: leftleft

Airport Ownership and Management from official FAA records

Ownership: Privately-owned
Owner: BLAYDE ELERT
5308 HIGHWAY G
RIO, WI 53960
Phone 608-546-2550
Manager: BLAYDE ELERT
5308 HIGHWAY G
RIO, WI 53960
Phone 608-546-2550

Airport Operational Statistics

Aircraft based on the field: 1
Single engine airplanes: 1
    

Additional Remarks

FOR CD CTC CHICAGO ARTCC AT 630-906-8921.

Instrument Procedures

There are no published instrument procedures at WS15.

Some nearby airports with instrument procedures:

C47 - Portage Municipal Airport (10 nm NW)
KMSN - Dane County Regional Airport-Truax Field (22 nm S)
KDLL - Baraboo-Wisconsin Dells Regional Airport (22 nm W)
87Y - Blackhawk Airfield (24 nm S)
91C - Sauk-Prairie Airport (24 nm SW)
 
Loc | Ops | Rwys | IFR | FBO | Links
Com | Nav | Svcs | Stats | Notes
Area around WS15 (Mill House Field Airport)
 
Road maps at: MapQuest Bing Google
 
Aerial photo
No photo
 
Sectional chart

 
Airport distance calculator
Flying to Mill House Field Airport? Find the distance to fly.

From to WS15

Sunrise and sunset
Times for 26-Feb-2020
 Local
(UTC-6)
 Zulu
(UTC)
Morning civil twilight06:1112:11
Sunrise06:3912:39
Sunset17:4123:41
Evening civil twilight18:0900:09

Current date and time
Zulu (UTC)  26-Feb-2020 10:34:41
Local (UTC-6)  26-Feb-2020 04:34:41
 
METAR
KMSN 
22nm S 
260953Z AUTO 01010KT 10SM SCT110 M05/M09 A3015 RMK AO2 SLP221 T10501089
KDLL 
22nm W 
261015Z AUTO 05005KT 10SM BKN023 OVC032 M05/M08 A3017 RMK AO2 T10521082
KUNU 
25nm E 
261015Z AUTO 35012G16KT 5SM HZ OVC024 M05/M08 A3015 RMK AO2 T10521085
KC29 
26nm SW 
261015Z AUTO 03008KT 10SM SCT025 SCT095 OVC120 M04/M07 A3016 RMK AO1 T10411075
KRYV 
31nm SE 
261015Z AUTO 36011G17KT 10SM OVC021 M04/M08 A3013 RMK AO2 T10451080
KC35 
31nm W 
261015Z AUTO 36007KT 10SM OVC028 M04/M08 A3018 RMK AO2 T10371083 PWINO
KY50 
33nm N 
260956Z AUTO 36005KT 10SM OVC030 M05/M09 A3020 RMK AO2 SLP234 T10501089 FZRANO $
KFLD 
38nm NE 
260953Z AUTO 36012KT 10SM OVC025 M04/M09 A3016 RMK AO2 SLP224 T10391089
KOSH 
42nm NE 
260953Z AUTO 36012KT 10SM OVC024 M05/M09 A3016 RMK AO2 SLP230 T10501094
K82C 
43nm NW 
261015Z AUTO 01009KT 7SM SCT031 OVC038 M04/M09 A3019 RMK AO2 T10401087
TAF
KMSN 
22nm S 
260911Z 2609/2706 03012KT P6SM BKN030 FM261800 35012G20KT P6SM OVC024 FM270000 34011KT P6SM BKN035 FM270500 32007KT P6SM BKN040
NOTAMs
Click for the latest NOTAMs
NOTAMs are issued by the DoD/FAA and will open in a separate window not controlled by AirNav.

 

 
 

Would you like to see your business listed on this page?

 If your business provides an interesting product or service to pilots, flight crews, aircraft, or users of the Mill House Field Airport, you should consider listing it here.  To start the listing process, click on the button below
 
Add a business
 

Other Pages about Mill House Field Airport

Update a link
 
Copyright © AirNav, LLC. All rights reserved. Privacy Policy  Contact